Time;durP1;ratioP1;P1;durP2;ratioP2;P2;SDS_P1;SDS_P2;PMS_P1;PMS_P2;Temp;Humidity;BMP_temperature;BMP_pressure;BME280_temperature;BME280_humidity;BME280_pressure;Samples;Min_cycle;Max_cycle;Signal;HPM_P1;HPM_P2
2022/08/28 00:01:08;;;;;;;9.02;7.05;;;;;;;18.42;64.49;95822.06;10314561;28;96874;-59
2022/08/28 00:06:11;;;;;;;16.38;13.43;;;;;;;18.21;65.25;95825.75;10325581;28;97335;-58
2022/08/28 00:11:16;;;;;;;8.95;7.32;;;;;;;18.10;67.03;95816.63;10324319;28;97578;-58
2022/08/28 00:16:18;;;;;;;6.20;5.60;;;;;;;17.89;66.86;95813.19;10331941;28;97942;-59
2022/08/28 00:21:21;;;;;;;7.40;6.25;;;;;;;17.80;67.20;95818.84;10325309;28;96870;-58
2022/08/28 00:31:46;;;;;;;10.23;7.55;;;;;;;17.65;68.01;95822.50;10324543;28;96809;-59
2022/08/28 00:36:49;;;;;;;7.78;6.03;;;;;;;17.57;67.89;95820.03;10335969;28;96753;-58
2022/08/28 00:41:54;;;;;;;6.80;5.85;;;;;;;17.51;68.08;95826.94;10326570;28;96720;-58
2022/08/28 00:47:00;;;;;;;7.55;5.90;;;;;;;17.47;68.14;95824.91;10335997;28;96814;-59
2022/08/28 00:52:07;;;;;;;8.90;5.95;;;;;;;17.48;67.95;95818.63;10334915;28;98256;-58
2022/08/28 00:57:20;;;;;;;6.68;5.57;;;;;;;17.44;67.42;95823.50;10331824;28;96805;-59
2022/08/28 01:02:30;;;;;;;7.25;6.18;;;;;;;17.31;68.16;95826.09;10337597;28;98732;-59
2022/08/28 01:07:33;;;;;;;;;;;;;;;17.25;67.38;95838.28;10349748;28;99100;-58
2022/08/28 01:12:38;;;;;;;7.28;5.80;;;;;;;17.16;67.91;95835.00;10348415;28;99082;-59
2022/08/28 01:17:45;;;;;;;6.90;5.88;;;;;;;16.95;68.70;95838.59;10351198;28;97884;-59
2022/08/28 01:22:56;;;;;;;7.90;5.57;;;;;;;16.89;69.75;95838.56;10340563;28;98344;-61
2022/08/28 01:28:02;;;;;;;7.65;5.40;;;;;;;16.78;69.82;95837.31;10329994;28;98055;-58
2022/08/28 01:33:05;;;;;;;8.98;5.65;;;;;;;16.77;69.80;95847.03;10331946;28;97273;-59
2022/08/28 01:38:07;;;;;;;8.40;6.00;;;;;;;16.77;69.52;95849.66;10331753;28;97488;-59
2022/08/28 01:43:13;;;;;;;8.52;6.45;;;;;;;16.67;70.50;95851.81;10328962;28;96888;-58
2022/08/28 01:48:17;;;;;;;11.13;6.28;;;;;;;16.62;70.36;95844.50;10326156;28;97237;-59
2022/08/28 01:53:22;;;;;;;6.88;6.05;;;;;;;16.63;70.00;95846.13;10328154;28;97698;-59
2022/08/28 01:58:29;;;;;;;8.30;6.18;;;;;;;16.62;69.77;95852.41;10337265;28;98488;-58
2022/08/28 02:03:38;;;;;;;7.25;5.70;;;;;;;16.44;70.14;95854.75;10337562;28;98662;-60
2022/08/28 02:08:41;;;;;;;8.57;6.65;;;;;;;16.46;70.32;95857.19;10343767;28;98834;-61
2022/08/28 02:13:45;;;;;;;8.10;5.85;;;;;;;16.35;70.86;95855.91;10342314;28;97929;-59
2022/08/28 02:18:52;;;;;;;7.53;6.28;;;;;;;16.21;71.49;95863.72;10342624;28;98625;-59
2022/08/28 02:23:55;;;;;;;7.40;6.45;;;;;;;16.15;71.53;95864.47;10345597;28;98549;-59
2022/08/28 02:28:59;;;;;;;7.85;5.75;;;;;;;16.02;71.12;95859.94;10353619;28;97656;-61
2022/08/28 02:34:02;;;;;;;8.45;6.60;;;;;;;16.00;71.60;95861.16;10340250;28;96899;-61
2022/08/28 02:39:05;;;;;;;7.90;7.10;;;;;;;15.96;72.56;95867.78;10331697;28;97931;-64
2022/08/28 02:44:09;;;;;;;9.52;6.05;;;;;;;15.85;72.46;95864.66;10339268;28;96950;-65
2022/08/28 02:49:12;;;;;;;7.37;6.43;;;;;;;15.92;71.87;95871.81;10333906;28;97815;-67
2022/08/28 02:54:15;;;;;;;8.10;6.22;;;;;;;15.95;72.03;95872.25;10347522;28;96916;-67
2022/08/28 02:59:21;;;;;;;7.28;6.40;;;;;;;16.04;71.84;95876.34;10334519;28;98770;-68
2022/08/28 03:04:24;;;;;;;8.30;6.97;;;;;;;16.10;71.87;95887.94;10330534;28;97761;-64
2022/08/28 03:09:27;;;;;;;9.65;7.30;;;;;;;15.98;72.28;95873.66;10337850;28;97822;-67
2022/08/28 03:14:31;;;;;;;9.15;7.05;;;;;;;15.95;72.09;95871.44;10345610;28;96988;-67
2022/08/28 03:19:34;;;;;;;7.77;6.87;;;;;;;15.87;72.67;95869.72;10333300;28;99009;-66
2022/08/28 03:24:37;;;;;;;12.50;8.70;;;;;;;15.83;72.62;95869.31;10338882;28;98408;-66
2022/08/28 03:29:42;;;;;;;7.85;7.03;;;;;;;15.79;72.98;95860.16;10342888;28;98313;-65
2022/08/28 03:34:45;;;;;;;7.87;7.07;;;;;;;15.79;73.11;95867.22;10346401;28;97700;-66
2022/08/28 03:39:48;;;;;;;8.40;7.17;;;;;;;15.80;73.13;95871.50;10336932;28;97639;-68
2022/08/28 03:44:53;;;;;;;10.00;7.32;;;;;;;15.77;73.09;95869.25;10334459;28;98006;-67
2022/08/28 03:49:56;;;;;;;8.32;6.82;;;;;;;15.65;73.01;95879.47;10344298;28;98584;-66
2022/08/28 03:55:00;;;;;;;8.55;7.15;;;;;;;15.61;72.96;95870.31;10340843;28;96740;-69
2022/08/28 04:00:07;;;;;;;10.68;7.18;;;;;;;15.61;73.35;95875.59;10340542;28;97420;-67
2022/08/28 04:05:11;;;;;;;7.85;7.05;;;;;;;15.60;73.38;95882.66;10342001;28;97711;-67
2022/08/28 04:10:13;;;;;;;9.77;7.82;;;;;;;15.63;73.11;95874.41;10351022;28;98765;-68
2022/08/28 04:15:19;;;;;;;9.90;6.97;;;;;;;15.64;72.46;95875.22;10348451;28;97128;-70
2022/08/28 04:20:22;;;;;;;7.97;7.15;;;;;;;15.66;72.95;95875.84;10357165;28;96936;-67
2022/08/28 04:25:25;;;;;;;8.10;6.55;;;;;;;15.60;72.29;95881.84;10349381;28;97074;-67
2022/08/28 04:30:29;;;;;;;9.85;7.38;;;;;;;15.48;73.04;95887.59;10356935;28;98812;-68
2022/08/28 04:35:32;;;;;;;10.87;6.87;;;;;;;15.50;72.57;95898.72;10351806;28;98308;-67
2022/08/28 04:40:39;;;;;;;8.43;7.15;;;;;;;15.40;73.11;95900.84;10351774;28;98504;-67
2022/08/28 04:45:45;;;;;;;9.00;7.80;;;;;;;15.41;74.38;95899.88;10347090;28;97740;-68
2022/08/28 04:50:49;;;;;;;8.30;7.20;;;;;;;15.45;74.11;95908.19;10343901;28;98866;-69
2022/08/28 04:55:52;;;;;;;12.73;7.47;;;;;;;15.52;74.29;95905.66;10350475;28;98547;-67
2022/08/28 05:00:58;;;;;;;8.88;7.45;;;;;;;15.63;74.28;95910.44;10346404;28;98976;-70
2022/08/28 05:06:02;;;;;;;8.43;6.85;;;;;;;15.75;74.30;95905.50;10335885;28;98428;-67
2022/08/28 05:11:13;;;;;;;7.93;6.83;;;;;;;15.88;74.51;95918.78;10341194;28;98685;-68
2022/08/28 05:16:30;;;;;;;8.65;6.65;;;;;;;16.00;73.94;95914.63;10337672;28;98577;-68
2022/08/28 05:21:33;;;;;;;9.07;6.47;;;;;;;16.12;73.94;95922.84;10352491;28;98501;-68
2022/08/28 05:26:37;;;;;;;9.02;5.93;;;;;;;16.21;73.11;95926.97;10349488;28;98824;-69
2022/08/28 05:31:43;;;;;;;7.95;6.22;;;;;;;16.24;72.42;95923.97;10344881;28;98628;-72
2022/08/28 05:36:48;;;;;;;7.63;6.10;;;;;;;16.41;72.48;95931.56;10345375;28;97429;-67
2022/08/28 05:41:51;;;;;;;9.43;6.32;;;;;;;16.56;72.26;95923.56;10333974;28;98411;-67
2022/08/28 05:46:55;;;;;;;7.72;6.25;;;;;;;16.73;72.03;95929.38;10346734;28;98630;-68
2022/08/28 05:51:58;;;;;;;7.40;5.83;;;;;;;16.84;71.38;95933.31;10336301;28;96888;-67
2022/08/28 05:57:00;;;;;;;7.05;6.22;;;;;;;17.00;71.94;95932.97;10340649;28;96900;-68
2022/08/28 06:02:06;;;;;;;7.05;6.35;;;;;;;17.18;71.30;95935.13;10336744;28;97981;-67
2022/08/28 06:07:10;;;;;;;7.00;6.30;;;;;;;17.30;71.30;95946.75;10344071;28;97709;-67
2022/08/28 06:12:14;;;;;;;6.90;5.60;;;;;;;17.34;70.70;95947.97;10343015;28;97733;-67
2022/08/28 06:17:18;;;;;;;8.27;6.35;;;;;;;17.39;71.33;95934.19;10342263;28;98499;-69
2022/08/28 06:22:25;;;;;;;7.03;6.07;;;;;;;17.68;70.69;95954.19;10336339;28;96944;-67
2022/08/28 06:27:29;;;;;;;8.52;6.60;;;;;;;17.84;69.87;95952.19;10347915;28;98313;-68
2022/08/28 06:32:34;;;;;;;6.07;5.47;;;;;;;18.01;70.27;95963.22;10348059;28;97608;-67
2022/08/28 06:37:36;;;;;;;8.32;6.20;;;;;;;18.09;69.74;95965.66;10337419;28;97010;-75
2022/08/28 06:42:39;;;;;;;6.70;6.00;;;;;;;18.29;69.45;95960.38;10335903;28;98963;-67
2022/08/28 06:47:44;;;;;;;6.47;5.75;;;;;;;18.43;69.77;95962.03;10332583;28;97530;-68
2022/08/28 06:52:46;;;;;;;7.05;6.22;;;;;;;18.66;68.82;95961.59;10329547;28;97126;-71
2022/08/28 06:57:49;;;;;;;7.82;6.25;;;;;;;18.88;69.25;95970.16;10327386;28;96929;-68
2022/08/28 07:02:53;;;;;;;7.03;6.03;;;;;;;19.17;68.33;95967.22;10326522;28;98589;-67
2022/08/28 07:07:56;;;;;;;6.70;6.00;;;;;;;19.43;67.28;95977.72;10309648;28;98613;-67
2022/08/28 07:12:59;;;;;;;6.50;5.90;;;;;;;19.56;67.41;95968.13;10304984;28;98885;-67
2022/08/28 07:18:03;;;;;;;6.55;5.85;;;;;;;19.58;67.09;95966.88;10312211;28;98614;-67
2022/08/28 07:23:06;;;;;;;8.00;6.85;;;;;;;19.63;66.97;95964.41;10303661;28;99585;-70
2022/08/28 07:28:09;;;;;;;8.50;6.63;;;;;;;19.68;67.11;95965.59;10312876;28;97673;-70
2022/08/28 07:33:13;;;;;;;7.57;6.30;;;;;;;19.82;66.67;95975.16;10305021;28;98117;-67
2022/08/28 07:38:16;;;;;;;7.57;6.78;;;;;;;19.83;65.87;95975.97;10310429;28;98638;-72
2022/08/28 07:48:43;;;;;;;7.13;6.25;;;;;;;19.85;66.65;95984.50;10314429;28;97056;-67
2022/08/28 07:53:46;;;;;;;6.97;6.15;;;;;;;20.07;66.50;95982.34;10307774;28;96872;-67
2022/08/28 07:58:49;;;;;;;7.13;6.40;;;;;;;20.47;65.11;95974.09;10313763;28;98540;-68
2022/08/28 08:03:53;;;;;;;7.25;6.10;;;;;;;20.87;64.38;95976.44;10306666;28;98556;-68
2022/08/28 08:09:05;;;;;;;7.13;6.15;;;;;;;21.21;63.27;95977.72;10309181;28;99269;-75
2022/08/28 08:14:08;;;;;;;6.97;6.13;;;;;;;21.48;62.74;95993.38;10298977;28;98142;-68
2022/08/28 08:19:13;;;;;;;6.80;6.10;;;;;;;21.54;62.73;95997.81;10326321;28;98222;-67
2022/08/28 08:24:19;;;;;;;6.65;5.65;;;;;;;21.42;62.42;95997.72;10305480;28;98212;-68
2022/08/28 08:29:23;;;;;;;6.53;5.93;;;;;;;21.34;62.51;95994.56;10320731;28;98403;-71
2022/08/28 08:34:27;;;;;;;7.03;6.33;;;;;;;21.41;62.40;96004.06;10320791;28;96905;-67
2022/08/28 08:39:30;;;;;;;6.07;5.47;;;;;;;21.29;62.55;96008.50;10328163;28;98039;-67
2022/08/28 08:44:39;;;;;;;6.53;5.90;;;;;;;21.21;62.65;96011.47;10322832;28;97186;-67
2022/08/28 08:49:50;;;;;;;6.22;5.40;;;;;;;21.19;62.65;96000.22;10328204;28;97896;-67
2022/08/28 08:55:05;;;;;;;6.63;5.95;;;;;;;21.20;62.51;96012.47;10329871;28;98400;-67
2022/08/28 09:00:10;;;;;;;7.93;6.18;;;;;;;21.17;62.69;96019.03;10329375;28;96858;-67
2022/08/28 09:05:22;;;;;;;6.90;6.20;;;;;;;21.17;62.51;96023.53;10338479;28;97147;-68
2022/08/28 09:10:35;;;;;;;7.38;6.18;;;;;;;21.18;62.29;96025.97;10331661;28;96946;-68
2022/08/28 09:15:43;;;;;;;8.02;6.72;;;;;;;21.29;62.00;96024.44;10333746;28;96763;-70
2022/08/28 09:20:55;;;;;;;7.55;6.10;;;;;;;21.37;61.56;96034.78;10330595;28;97391;-67
2022/08/28 09:26:00;;;;;;;7.07;6.25;;;;;;;21.31;61.71;96035.66;10330468;28;98339;-73
2022/08/28 09:31:07;;;;;;;6.90;6.20;;;;;;;21.18;61.93;96038.47;10336913;28;96852;-67
2022/08/28 09:36:30;;;;;;;7.47;6.75;;;;;;;20.98;62.76;96039.47;10322765;28;97860;-67
2022/08/28 09:46:58;;;;;;;9.02;6.50;;;;;;;21.09;62.17;96049.34;10325753;28;96764;-69
2022/08/28 09:52:18;;;;;;;6.82;6.13;;;;;;;21.31;61.75;96046.28;10318982;28;97662;-67
2022/08/28 09:57:27;;;;;;;6.10;5.50;;;;;;;21.80;61.26;96043.75;10319603;28;96759;-68
2022/08/28 10:02:40;;;;;;;6.95;5.90;;;;;;;22.22;60.29;96039.28;10328308;28;96874;-67
2022/08/28 10:07:51;;;;;;;6.80;5.90;;;;;;;22.72;58.78;96040.84;10333247;28;98766;-67
2022/08/28 10:13:03;;;;;;;7.50;6.70;;;;;;;23.05;57.69;96041.31;10333820;28;97042;-67
2022/08/28 10:18:23;;;;;;;6.70;5.97;;;;;;;23.25;57.41;96047.13;10333755;28;96997;-67
2022/08/28 10:23:38;;;;;;;6.82;6.10;;;;;;;23.47;56.23;96041.22;10332115;28;96836;-67
2022/08/28 10:28:49;;;;;;;8.25;6.40;;;;;;;23.68;56.03;96037.94;10332134;28;97361;-67
2022/08/28 10:34:03;;;;;;;6.55;5.90;;;;;;;23.78;55.94;96039.22;10320147;28;97849;-67
2022/08/28 10:39:22;;;;;;;6.72;6.13;;;;;;;23.85;55.74;96042.53;10332239;28;98182;-64
2022/08/28 10:44:30;;;;;;;5.88;5.28;;;;;;;24.20;55.08;96028.28;10331745;28;97347;-68
2022/08/28 10:49:38;;;;;;;6.10;5.50;;;;;;;24.54;53.90;96037.19;10328812;28;97305;-68
2022/08/28 10:54:49;;;;;;;6.50;5.82;;;;;;;24.50;53.47;96034.19;10326224;28;96866;-68
2022/08/28 10:59:53;;;;;;;7.32;6.63;;;;;;;24.81;52.80;96040.03;10330966;28;97132;-68
2022/08/28 11:04:57;;;;;;;5.90;5.30;;;;;;;24.96;52.35;96041.34;10330931;28;96880;-66
2022/08/28 11:15:52;;;;;;;6.13;5.60;;;;;;;25.07;52.27;96032.41;10539552;27;98133;-67
2022/08/28 11:21:02;;;;;;;5.95;5.40;;;;;;;25.22;51.55;96026.50;10509823;27;96755;-67
2022/08/28 11:26:12;;;;;;;6.00;5.30;;;;;;;25.47;50.97;96028.69;10524981;27;98653;-66
2022/08/28 11:31:35;;;;;;;6.25;5.28;;;;;;;25.56;50.24;96027.22;10525617;27;96804;-66
2022/08/28 11:36:58;;;;;;;5.75;5.13;;;;;;;25.74;49.84;96025.34;10502156;27;97561;-66
2022/08/28 11:42:31;;;;;;;6.40;5.50;;;;;;;25.65;49.46;96021.47;10505780;27;96833;-66
2022/08/28 11:47:55;;;;;;;7.03;6.43;;;;;;;25.61;49.25;96016.59;10485672;27;97400;-72
2022/08/28 11:53:44;;;;;;;6.65;5.65;;;;;;;25.68;49.47;96020.97;10502152;27;97302;-71
2022/08/28 11:58:56;;;;;;;5.40;4.90;;;;;;;25.48;49.42;96016.94;10507967;27;96866;-72
2022/08/28 12:04:03;;;;;;;5.22;4.72;;;;;;;24.82;50.31;96009.59;10506330;27;98350;-71
2022/08/28 12:09:11;;;;;;;5.95;4.80;;;;;;;24.71;50.74;96015.78;10477348;27;97807;-72
2022/08/28 12:15:06;;;;;;;6.32;4.82;;;;;;;24.84;51.05;96012.84;10475830;27;96861;-72
2022/08/28 12:20:15;;;;;;;5.25;4.75;;;;;;;24.86;50.50;96004.59;10479572;27;97065;-72
2022/08/28 12:25:31;;;;;;;5.78;4.65;;;;;;;25.10;50.35;96005.22;10474197;27;96745;-72
2022/08/28 12:30:44;;;;;;;5.28;4.78;;;;;;;25.21;49.79;96001.59;10462556;27;96747;-72
2022/08/28 12:35:49;;;;;;;5.13;4.35;;;;;;;25.28;49.91;95995.28;10459861;27;96990;-72
2022/08/28 12:40:53;;;;;;;5.45;4.90;;;;;;;25.48;49.60;96000.06;10474340;27;97029;-70
2022/08/28 12:45:59;;;;;;;5.30;4.80;;;;;;;25.65;49.30;95994.72;10465138;27;97435;-67
2022/08/28 12:51:06;;;;;;;5.80;4.65;;;;;;;25.71;49.37;95988.38;10462056;27;96826;-74
2022/08/28 12:56:10;;;;;;;4.78;4.38;;;;;;;25.83;49.41;95994.41;10471790;27;97933;-73
2022/08/28 13:01:16;;;;;;;5.13;4.63;;;;;;;25.97;49.39;95976.88;10477533;27;97362;-74
2022/08/28 13:06:26;;;;;;;4.75;4.22;;;;;;;26.23;48.43;95969.09;10458388;27;97904;-74
2022/08/28 13:11:35;;;;;;;5.45;4.47;;;;;;;26.39;48.19;95969.28;10441899;27;98509;-72
2022/08/28 13:16:40;;;;;;;5.22;4.72;;;;;;;26.37;48.56;95961.50;10478989;27;97451;-75
2022/08/28 13:21:59;;;;;;;5.60;4.30;;;;;;;26.41;47.98;95953.75;10455634;27;96905;-73
2022/08/28 13:27:07;;;;;;;5.13;4.63;;;;;;;26.19;48.38;95951.94;10462513;27;97070;-73
2022/08/28 13:32:17;;;;;;;5.25;4.75;;;;;;;26.60;47.60;95946.94;10467492;27;97137;-72
2022/08/28 13:37:43;;;;;;;6.85;4.75;;;;;;;26.89;47.20;95930.53;10460086;27;96845;-72
2022/08/28 13:42:47;;;;;;;4.90;4.40;;;;;;;26.98;46.61;95936.25;10448237;27;97052;-73
2022/08/28 13:47:50;;;;;;;5.03;4.20;;;;;;;27.10;46.93;95937.63;10452338;27;97841;-68
2022/08/28 13:52:55;;;;;;;5.70;4.97;;;;;;;27.23;46.42;95939.06;10462637;27;96816;-73
2022/08/28 13:57:57;;;;;;;5.25;4.75;;;;;;;27.27;46.11;95933.97;10463526;27;96911;-73
2022/08/28 14:08:22;;;;;;;5.13;4.40;;;;;;;27.62;45.33;95935.22;10472614;27;96795;-73
2022/08/28 14:13:26;;;;;;;4.47;4.07;;;;;;;27.73;45.21;95936.84;10472728;27;97184;-73
2022/08/28 14:18:29;;;;;;;4.97;4.47;;;;;;;27.94;44.91;95929.63;10484264;27;96882;-73
2022/08/28 14:23:34;;;;;;;5.33;4.57;;;;;;;28.35;43.66;95927.03;10479215;27;97483;-73
2022/08/28 14:28:36;;;;;;;4.40;3.95;;;;;;;28.40;43.60;95921.66;10462405;27;98878;-73
2022/08/28 14:33:39;;;;;;;4.70;3.90;;;;;;;28.81;43.47;95918.13;10453531;27;97607;-73
2022/08/28 14:38:45;;;;;;;4.68;4.28;;;;;;;29.26;42.08;95916.44;10450080;27;99192;-74
2022/08/28 14:43:49;;;;;;;4.88;4.47;;;;;;;29.97;41.48;95909.09;10439470;27;97391;-72
2022/08/28 14:48:52;;;;;;;4.40;4.00;;;;;;;30.28;40.08;95919.69;10459424;27;96888;-74
2022/08/28 14:53:58;;;;;;;4.25;3.85;;;;;;;30.30;39.92;95925.59;10441225;27;96803;-72
2022/08/28 14:59:03;;;;;;;4.22;3.83;;;;;;;29.91;40.42;95920.97;10457916;27;97997;-74
2022/08/28 15:04:09;;;;;;;4.53;3.80;;;;;;;29.31;41.14;95902.94;10452581;27;96957;-72
2022/08/28 15:09:14;;;;;;;5.05;4.20;;;;;;;29.21;41.35;95916.44;10446193;27;97055;-74
2022/08/28 15:14:17;;;;;;;4.68;4.28;;;;;;;29.09;41.73;95914.06;10455485;27;96998;-73
2022/08/28 15:19:22;;;;;;;4.72;4.32;;;;;;;29.48;41.28;95907.19;10444972;27;98516;-72
2022/08/28 15:24:29;;;;;;;4.20;3.78;;;;;;;30.07;39.97;95917.09;10453679;27;97821;-72
2022/08/28 15:29:32;;;;;;;4.68;4.00;;;;;;;30.56;39.57;95911.91;10449595;27;96946;-72
2022/08/28 15:34:35;;;;;;;4.38;3.97;;;;;;;30.57;39.25;95902.75;10442644;27;97177;-72
2022/08/28 15:45:00;;;;;;;4.35;3.80;;;;;;;31.38;38.22;95911.91;10453345;27;96872;-73
2022/08/28 15:50:04;;;;;;;4.22;3.83;;;;;;;32.22;36.75;95924.00;10455306;27;97690;-73
2022/08/28 15:55:10;;;;;;;5.60;3.88;;;;;;;32.67;35.75;95918.97;10454702;27;99200;-73
2022/08/28 16:00:14;;;;;;;3.88;3.58;;;;;;;33.20;34.96;95920.44;10445311;27;97989;-73
2022/08/28 16:05:17;;;;;;;3.90;3.60;;;;;;;33.55;34.29;95926.28;10453069;27;98043;-73
2022/08/28 16:10:24;;;;;;;4.30;3.90;;;;;;;32.69;35.40;95921.38;10470204;27;96948;-74
2022/08/28 16:15:28;;;;;;;4.28;3.55;;;;;;;31.99;36.08;95920.31;10484773;27;98025;-67
2022/08/28 16:20:31;;;;;;;4.45;4.05;;;;;;;30.99;37.63;95930.94;10458147;27;97284;-66
2022/08/28 16:25:36;;;;;;;4.38;3.88;;;;;;;30.16;38.59;95930.81;10474467;27;98011;-71
2022/08/28 16:30:41;;;;;;;5.32;4.25;;;;;;;29.38;39.72;95937.63;10450610;27;98051;-68
2022/08/28 16:35:47;;;;;;;5.95;3.92;;;;;;;28.56;41.26;95930.50;10453707;27;97295;-69
2022/08/28 16:40:59;;;;;;;4.88;4.15;;;;;;;28.09;42.05;95912.75;10455965;27;97655;-67
2022/08/28 16:46:02;;;;;;;4.55;4.18;;;;;;;27.96;42.34;95914.09;10441778;27;97156;-70
2022/08/28 16:51:07;;;;;;;5.15;4.15;;;;;;;28.21;41.94;95905.25;10443311;27;98046;-66
2022/08/28 16:56:13;;;;;;;4.47;4.07;;;;;;;28.43;41.53;95912.28;10444592;27;98422;-71
2022/08/28 17:01:16;;;;;;;4.45;4.05;;;;;;;28.26;42.29;95925.13;10448550;27;100898;-70
2022/08/28 17:06:23;;;;;;;4.63;4.22;;;;;;;28.80;41.20;95913.84;10450703;27;99038;-67
2022/08/28 17:11:27;;;;;;;5.90;4.15;;;;;;;28.87;41.39;95911.66;10435616;27;98146;-72
2022/08/28 17:16:31;;;;;;;4.93;4.40;;;;;;;28.29;42.43;95912.00;10460748;27;99140;-63
2022/08/28 17:26:55;;;;;;;6.57;4.30;;;;;;;27.27;44.01;95918.69;10449838;27;97108;-63
2022/08/28 17:31:58;;;;;;;5.28;4.78;;;;;;;26.90;44.67;95918.72;10445508;27;96933;-63
2022/08/28 17:37:00;;;;;;;5.87;5.27;;;;;;;26.55;45.58;95912.06;10448113;27;96852;-65
2022/08/28 17:42:05;;;;;;;5.33;4.83;;;;;;;26.29;46.16;95913.75;10454026;27;97954;-63
2022/08/28 17:47:08;;;;;;;4.95;4.45;;;;;;;26.05;46.80;95929.31;10458814;27;96985;-63
2022/08/28 17:52:11;;;;;;;6.70;4.72;;;;;;;25.70;47.89;95922.53;10486969;27;96922;-63
2022/08/28 17:57:17;;;;;;;5.82;4.72;;;;;;;25.38;48.86;95928.56;10457793;27;97035;-64
2022/08/28 18:02:20;;;;;;;5.32;4.82;;;;;;;25.01;49.88;95937.22;10441461;27;97828;-64
2022/08/28 18:07:24;;;;;;;5.45;4.95;;;;;;;24.72;50.70;95934.63;10460509;27;96839;-63
2022/08/28 18:12:31;;;;;;;;;;;;;;;24.54;50.30;95949.06;10471188;27;96766;-65
2022/08/28 18:17:35;;;;;;;7.35;5.03;;;;;;;24.43;51.66;95953.41;10455889;27;97021;-69
2022/08/28 18:22:41;;;;;;;7.63;6.18;;;;;;;24.08;53.20;95962.41;10448893;27;97409;-66
2022/08/28 18:27:45;;;;;;;7.40;5.93;;;;;;;23.63;54.55;95971.16;10460080;27;98271;-68
2022/08/28 18:32:48;;;;;;;6.43;5.70;;;;;;;23.32;55.51;95973.19;10447900;27;98309;-68
2022/08/28 18:37:51;;;;;;;7.85;5.47;;;;;;;23.25;55.53;95983.16;10474772;27;97130;-66
2022/08/28 18:42:57;;;;;;;5.65;5.13;;;;;;;23.22;55.17;95986.31;10464805;27;97206;-68
2022/08/28 18:48:04;;;;;;;6.55;5.00;;;;;;;23.15;54.70;95996.25;10470360;27;97694;-70
2022/08/28 18:53:07;;;;;;;7.43;5.82;;;;;;;22.97;54.83;95999.88;10457088;27;97015;-69
2022/08/28 18:58:13;;;;;;;47.42;31.60;;;;;;;22.73;55.52;95993.72;10498426;27;97206;-68
2022/08/28 19:03:21;;;;;;;7.40;5.55;;;;;;;22.62;55.59;96004.13;10456844;27;97026;-68
2022/08/28 19:08:24;;;;;;;5.60;5.10;;;;;;;22.59;55.73;96009.91;10481608;27;97344;-69
2022/08/28 19:13:30;;;;;;;6.20;5.63;;;;;;;22.31;57.00;96012.38;10447311;27;96994;-70
2022/08/28 19:18:34;;;;;;;13.88;6.88;;;;;;;22.16;57.01;96020.75;10450128;27;96968;-69
2022/08/28 19:23:40;;;;;;;6.50;5.80;;;;;;;22.06;57.38;96032.75;10455824;27;96881;-65
2022/08/28 19:28:59;;;;;;;10.02;5.55;;;;;;;21.88;58.04;96038.94;10457143;27;97189;-65
2022/08/28 19:34:04;;;;;;;7.18;6.47;;;;;;;21.81;58.63;96043.50;10469065;27;97268;-64
2022/08/28 19:39:09;;;;;;;9.18;6.78;;;;;;;21.77;59.21;96060.94;10462481;27;98260;-66
2022/08/28 19:44:18;;;;;;;7.70;6.90;;;;;;;21.54;60.22;96060.78;10477470;27;96991;-65
2022/08/28 19:49:21;;;;;;;10.00;6.97;;;;;;;21.44;60.83;96064.75;10478141;27;96663;-64
2022/08/28 19:54:24;;;;;;;8.15;6.45;;;;;;;21.05;61.39;96040.22;10465794;27;97033;-65
2022/08/28 19:59:28;;;;;;;8.43;6.47;;;;;;;21.03;61.74;96065.34;10485889;27;97147;-65
2022/08/28 20:04:31;;;;;;;7.55;5.88;;;;;;;20.77;61.21;96055.75;10460759;27;97429;-65
2022/08/28 20:09:34;;;;;;;7.03;6.07;;;;;;;20.79;61.39;96064.31;10494544;27;97300;-65
2022/08/28 20:14:41;;;;;;;8.70;6.28;;;;;;;20.66;62.08;96063.34;10480190;27;96935;-65
2022/08/28 20:19:44;;;;;;;6.45;5.75;;;;;;;20.55;61.60;96066.72;10493186;27;97832;-66
2022/08/28 20:24:47;;;;;;;9.23;5.63;;;;;;;20.50;61.24;96074.50;10467479;27;97249;-64
2022/08/28 20:29:52;;;;;;;6.30;4.95;;;;;;;20.49;61.31;96070.22;10473053;27;96876;-64
2022/08/28 20:34:55;;;;;;;5.57;4.70;;;;;;;20.42;61.07;96064.16;10470472;27;97278;-65
2022/08/28 20:39:59;;;;;;;6.60;5.53;;;;;;;20.37;60.85;96072.75;10465633;27;98961;-66
2022/08/28 20:45:05;;;;;;;8.23;6.28;;;;;;;20.30;61.06;96071.97;10474906;27;97935;-65
2022/08/28 20:50:08;;;;;;;11.00;6.47;;;;;;;20.27;60.73;96073.22;10484125;27;98575;-65
2022/08/28 20:55:13;;;;;;;6.53;5.27;;;;;;;20.24;60.50;96073.63;10476293;27;96927;-67
2022/08/28 21:00:17;;;;;;;7.35;5.30;;;;;;;20.18;60.14;96082.44;10466832;27;97053;-66
2022/08/28 21:05:20;;;;;;;6.07;5.50;;;;;;;19.92;61.26;96076.25;10437446;27;96827;-65
2022/08/28 21:10:23;;;;;;;6.75;5.70;;;;;;;19.70;62.49;96073.03;10459483;27;98022;-61
2022/08/28 21:15:27;;;;;;;5.95;5.35;;;;;;;19.55;62.63;96075.13;10471850;27;97168;-61
2022/08/28 21:20:30;;;;;;;5.95;5.35;;;;;;;19.58;62.40;96075.50;10462841;27;97176;-61
2022/08/28 21:25:33;;;;;;;6.57;5.07;;;;;;;19.59;62.56;96082.44;10487619;27;96988;-61
2022/08/28 21:30:41;;;;;;;6.50;5.38;;;;;;;19.59;62.86;96084.25;10468660;27;97439;-62
2022/08/28 21:35:45;;;;;;;7.22;5.38;;;;;;;19.52;62.93;96086.97;10488058;27;96839;-61
2022/08/28 21:40:47;;;;;;;6.43;5.27;;;;;;;19.41;63.38;96084.94;10465141;27;97506;-61
2022/08/28 21:45:58;;;;;;;5.85;4.80;;;;;;;19.35;62.84;96091.03;10486527;27;97355;-61
2022/08/28 21:51:02;;;;;;;6.22;4.97;;;;;;;19.28;62.89;96083.13;10476000;27;97071;-61
2022/08/28 21:56:07;;;;;;;6.75;5.60;;;;;;;19.23;62.49;96078.44;10463227;27;98000;-61
2022/08/28 22:01:14;;;;;;;5.97;5.07;;;;;;;19.17;62.61;96084.53;10454338;27;97555;-61
2022/08/28 22:06:20;;;;;;;7.30;5.22;;;;;;;19.12;62.74;96084.34;10468854;27;98060;-62
2022/08/28 22:11:25;;;;;;;6.25;5.03;;;;;;;19.04;62.98;96101.25;10449158;27;98902;-62
2022/08/28 22:16:30;;;;;;;6.63;5.93;;;;;;;18.98;63.37;96093.31;10470481;27;96786;-64
2022/08/28 22:26:53;;;;;;;5.75;5.10;;;;;;;18.91;62.75;96095.16;10462590;27;98362;-62
2022/08/28 22:32:00;;;;;;;7.90;5.90;;;;;;;18.73;64.19;96093.09;10489095;27;97454;-63
2022/08/28 22:37:03;;;;;;;5.22;4.55;;;;;;;18.45;64.31;96108.09;10474620;27;97022;-62
2022/08/28 22:42:06;;;;;;;5.97;4.95;;;;;;;18.43;62.67;96102.22;10487528;27;97174;-62
2022/08/28 22:47:11;;;;;;;7.65;5.70;;;;;;;18.34;64.36;96110.50;10478497;27;97582;-63
2022/08/28 22:52:14;;;;;;;7.65;5.68;;;;;;;18.11;65.74;96120.41;10461633;27;97003;-62
2022/08/28 22:57:16;;;;;;;7.13;6.28;;;;;;;17.99;66.59;96119.34;10473093;27;97647;-62
2022/08/28 23:02:22;;;;;;;6.28;5.68;;;;;;;18.02;65.28;96118.94;10460981;27;97187;-62
2022/08/28 23:07:29;;;;;;;7.93;5.55;;;;;;;18.07;65.88;96121.00;10464156;27;98280;-63
2022/08/28 23:12:33;;;;;;;6.65;5.88;;;;;;;17.99;66.48;96121.97;10469066;27;96934;-63
2022/08/28 23:17:37;;;;;;;7.15;5.72;;;;;;;17.85;66.89;96117.66;10455407;27;97116;-62
2022/08/28 23:22:43;;;;;;;7.65;6.13;;;;;;;17.72;67.86;96118.41;10461131;27;96949;-62
2022/08/28 23:27:46;;;;;;;6.30;5.70;;;;;;;17.81;67.22;96137.53;10444335;27;96663;-62
2022/08/28 23:32:50;;;;;;;6.07;5.30;;;;;;;17.69;66.97;96132.78;10457299;27;98541;-62
2022/08/28 23:37:53;;;;;;;8.55;5.20;;;;;;;17.54;66.96;96126.81;10451261;27;98660;-63
2022/08/28 23:42:56;;;;;;;6.78;6.07;;;;;;;17.55;67.48;96123.16;10447303;27;96891;-64
2022/08/28 23:48:02;;;;;;;7.33;5.93;;;;;;;17.50;68.05;96125.56;10443370;27;96778;-63
2022/08/28 23:53:06;;;;;;;6.63;5.50;;;;;;;17.35;68.74;96128.31;10453390;27;98427;-62
2022/08/28 23:58:10;;;;;;;8.77;6.13;;;;;;;17.30;68.77;96126.28;10458183;27;96784;-62
